createdAt,value
2022-09-26T00:00:14.006Z,10.00
2022-09-26T00:01:14.114Z,9.99
2022-09-26T00:02:14.001Z,9.96
2022-09-26T00:03:13.935Z,9.93
2022-09-26T00:04:13.949Z,9.89
2022-09-26T00:05:13.905Z,9.89
2022-09-26T00:06:13.941Z,9.88
2022-09-26T00:07:14.018Z,9.86
2022-09-26T00:08:13.874Z,9.85
2022-09-26T00:09:13.971Z,9.86
2022-09-26T00:10:13.849Z,9.86
2022-09-26T00:11:14.779Z,9.86
2022-09-26T00:12:13.831Z,9.89
2022-09-26T00:13:13.917Z,9.89
2022-09-26T00:14:13.812Z,9.88
2022-09-26T00:15:13.797Z,9.89
2022-09-26T00:16:13.826Z,9.89
2022-09-26T00:17:13.794Z,9.89
2022-09-26T00:18:13.753Z,9.89
2022-09-26T00:19:13.912Z,9.88
2022-09-26T00:20:14.661Z,9.88
2022-09-26T00:21:13.715Z,9.88
2022-09-26T00:22:13.682Z,9.86
2022-09-26T00:23:13.673Z,9.86
2022-09-26T00:24:13.673Z,9.88
2022-09-26T00:25:13.759Z,9.86
2022-09-26T00:26:13.644Z,9.85
2022-09-26T00:27:13.623Z,9.83
2022-09-26T00:28:13.615Z,9.82
2022-09-26T00:29:13.744Z,9.81
2022-09-26T00:30:13.572Z,9.81
2022-09-26T00:31:13.738Z,9.79
2022-09-26T00:32:13.557Z,9.79
2022-09-26T00:33:13.529Z,9.75
2022-09-26T00:34:13.530Z,9.73
2022-09-26T00:35:14.209Z,9.71
2022-09-26T00:36:13.493Z,9.68
2022-09-26T00:37:13.617Z,9.68
2022-09-26T00:38:13.464Z,9.68
2022-09-26T00:39:13.590Z,9.70
2022-09-26T00:40:13.489Z,9.70
2022-09-26T00:41:14.366Z,9.68
2022-09-26T00:42:13.419Z,9.70
2022-09-26T00:43:13.539Z,9.70
2022-09-26T00:44:13.392Z,9.71
2022-09-26T00:45:13.379Z,9.71
2022-09-26T00:46:13.449Z,9.70
2022-09-26T00:47:13.338Z,9.71
2022-09-26T00:48:13.342Z,9.71
2022-09-26T00:49:13.578Z,9.71
2022-09-26T00:50:13.342Z,9.73
2022-09-26T00:51:13.281Z,9.73
2022-09-26T00:52:13.281Z,9.75
2022-09-26T00:53:13.258Z,9.73
2022-09-26T00:54:13.262Z,9.75
2022-09-26T00:55:13.373Z,9.73
2022-09-26T00:56:13.243Z,9.75
2022-09-26T00:57:13.215Z,9.73
2022-09-26T00:58:13.887Z,9.73
2022-09-26T00:59:13.344Z,9.71
2022-09-26T01:00:13.174Z,9.71
2022-09-26T01:01:13.349Z,9.71
2022-09-26T01:02:13.299Z,9.71
2022-09-26T01:03:13.134Z,9.71
2022-09-26T01:04:13.109Z,9.71
2022-09-26T01:05:13.093Z,9.70
2022-09-26T01:06:13.096Z,9.75
2022-09-26T01:07:13.107Z,9.78
2022-09-26T01:08:13.070Z,9.79
2022-09-26T01:09:13.166Z,9.81
2022-09-26T01:10:13.023Z,9.82
2022-09-26T01:11:16.744Z,9.82
2022-09-26T01:12:13.017Z,9.83
2022-09-26T01:13:13.124Z,9.83
2022-09-26T01:14:12.986Z,9.83
2022-09-26T01:15:12.968Z,9.85
2022-09-26T01:16:12.992Z,9.83
2022-09-26T01:17:12.947Z,9.83
2022-09-26T01:18:12.924Z,9.82
2022-09-26T01:19:13.051Z,9.82
2022-09-26T01:20:12.900Z,9.79
2022-09-26T01:21:12.900Z,9.79
2022-09-26T01:22:12.875Z,9.76
2022-09-26T01:23:12.858Z,9.76
2022-09-26T01:24:12.861Z,9.70
2022-09-26T01:25:12.940Z,9.64
2022-09-26T01:26:12.822Z,9.60
2022-09-26T01:27:12.813Z,9.57
2022-09-26T01:28:12.786Z,9.57
2022-09-26T01:29:12.868Z,9.52
2022-09-26T01:30:13.465Z,9.52
2022-09-26T01:31:12.891Z,9.49
2022-09-26T01:32:12.747Z,9.48
2022-09-26T01:33:12.712Z,9.48
2022-09-26T01:34:12.713Z,9.46
2022-09-26T01:35:12.696Z,9.48
2022-09-26T01:36:12.685Z,9.48
2022-09-26T01:37:12.783Z,9.48
2022-09-26T01:38:12.649Z,9.49
2022-09-26T01:39:16.473Z,9.52
2022-09-26T01:40:12.714Z,9.52
2022-09-26T01:41:12.602Z,9.53
2022-09-26T01:42:12.611Z,9.57
2022-09-26T01:43:12.706Z,9.56
2022-09-26T01:44:12.574Z,9.63
2022-09-26T01:45:12.556Z,9.63
2022-09-26T01:46:12.630Z,9.63
2022-09-26T01:47:12.515Z,9.64
2022-09-26T01:48:12.520Z,9.63
2022-09-26T01:49:12.614Z,9.66
2022-09-26T01:50:12.500Z,9.67
2022-09-26T01:51:12.599Z,9.67
2022-09-26T01:52:12.459Z,9.67
2022-09-26T01:53:12.435Z,9.70
2022-09-26T01:54:12.439Z,9.70
2022-09-26T01:55:12.452Z,9.70
2022-09-26T01:56:12.398Z,9.70
2022-09-26T01:57:12.391Z,9.70
2022-09-26T01:58:12.375Z,9.70
2022-09-26T01:59:12.358Z,9.71
2022-09-26T02:00:12.362Z,9.70
2022-09-26T02:01:12.418Z,9.70
2022-09-26T02:02:12.379Z,9.70
2022-09-26T02:03:12.325Z,9.70
2022-09-26T02:04:12.294Z,9.70
2022-09-26T02:05:12.294Z,9.70
2022-09-26T02:06:12.260Z,9.71
2022-09-26T02:07:12.288Z,9.70
2022-09-26T02:08:12.255Z,9.70
2022-09-26T02:09:12.259Z,9.68
2022-09-26T02:10:12.230Z,9.68
2022-09-26T02:11:12.251Z,9.70
2022-09-26T02:12:12.204Z,9.68
2022-09-26T02:13:12.283Z,9.68
2022-09-26T02:14:12.173Z,9.67
2022-09-26T02:15:12.156Z,9.68
2022-09-26T02:16:12.195Z,9.67
2022-09-26T02:17:12.128Z,9.67
2022-09-26T02:18:12.113Z,9.68
2022-09-26T02:19:12.238Z,9.68
2022-09-26T02:20:12.095Z,9.70
2022-09-26T02:21:12.065Z,9.70
2022-09-26T02:22:12.069Z,9.71
2022-09-26T02:23:12.038Z,9.73
2022-09-26T02:24:12.017Z,9.71
2022-09-26T02:25:12.125Z,9.71
2022-09-26T02:26:12.010Z,9.73
2022-09-26T02:27:12.007Z,9.71
2022-09-26T02:28:11.975Z,9.73
2022-09-26T02:29:12.075Z,9.73
2022-09-26T02:30:11.950Z,9.75
2022-09-26T02:31:12.040Z,9.78
2022-09-26T02:32:12.004Z,9.79
2022-09-26T02:33:11.887Z,9.79
2022-09-26T02:34:12.582Z,9.81
2022-09-26T02:35:11.874Z,9.83
2022-09-26T02:36:11.856Z,9.86
2022-09-26T02:37:11.970Z,9.88
2022-09-26T02:38:11.826Z,9.89
2022-09-26T02:39:11.839Z,9.91
2022-09-26T02:40:11.850Z,9.88
2022-09-26T02:41:11.792Z,9.89
2022-09-26T02:42:11.791Z,9.91
2022-09-26T02:43:11.877Z,9.93
2022-09-26T02:44:11.740Z,9.91
2022-09-26T02:45:12.692Z,9.91
2022-09-26T02:46:11.746Z,9.93
2022-09-26T02:47:11.693Z,9.94
2022-09-26T02:48:11.704Z,9.93
2022-09-26T02:49:11.744Z,9.93
2022-09-26T02:50:11.674Z,9.93
2022-09-26T02:51:11.664Z,9.93
2022-09-26T02:52:11.641Z,9.93
2022-09-26T02:53:11.635Z,9.93
2022-09-26T02:54:11.610Z,9.93
2022-09-26T02:55:11.618Z,9.91
2022-09-26T02:56:11.595Z,9.89
2022-09-26T02:57:11.577Z,9.93
2022-09-26T02:58:11.555Z,9.93
2022-09-26T02:59:11.643Z,9.91
2022-09-26T03:00:11.537Z,9.91
2022-09-26T03:01:11.663Z,9.91
2022-09-26T03:02:11.521Z,9.93
2022-09-26T03:03:11.491Z,9.94
2022-09-26T03:04:11.602Z,9.93
2022-09-26T03:05:11.546Z,9.96
2022-09-26T03:06:11.445Z,9.94
2022-09-26T03:07:11.456Z,9.94
2022-09-26T03:08:11.433Z,9.94
2022-09-26T03:09:11.449Z,9.96
2022-09-26T03:10:11.490Z,9.94
2022-09-26T03:11:11.381Z,9.96
2022-09-26T03:12:12.057Z,9.94
2022-09-26T03:13:11.477Z,9.96
2022-09-26T03:14:11.344Z,9.97
2022-09-26T03:15:11.350Z,9.96
2022-09-26T03:16:11.346Z,9.96
2022-09-26T03:17:11.302Z,9.94
2022-09-26T03:18:11.289Z,9.96
2022-09-26T03:19:11.464Z,9.97
2022-09-26T03:20:11.263Z,9.96
2022-09-26T03:21:11.231Z,9.96
2022-09-26T03:22:11.241Z,9.96
2022-09-26T03:23:11.226Z,9.96
2022-09-26T03:24:11.192Z,9.94
2022-09-26T03:25:11.309Z,9.97
2022-09-26T03:26:11.174Z,9.97
2022-09-26T03:27:11.844Z,9.97
2022-09-26T03:28:11.155Z,9.97
2022-09-26T03:29:11.191Z,9.99
2022-09-26T03:30:11.121Z,9.99
2022-09-26T03:31:11.164Z,10.00
2022-09-26T03:32:11.172Z,10.00
2022-09-26T03:33:11.066Z,10.00
2022-09-26T03:34:11.075Z,10.01
2022-09-26T03:35:11.757Z,10.01
2022-09-26T03:36:11.034Z,10.01
2022-09-26T03:37:11.157Z,10.04
2022-09-26T03:38:14.265Z,10.04
2022-09-26T03:39:10.985Z,10.06
2022-09-26T03:40:11.064Z,10.07
2022-09-26T03:41:10.957Z,10.06
2022-09-26T03:42:10.980Z,10.09
2022-09-26T03:43:11.088Z,10.10
2022-09-26T03:44:10.939Z,10.10
2022-09-26T03:45:10.933Z,10.12
2022-09-26T03:46:10.955Z,10.12
2022-09-26T03:47:10.883Z,10.12
2022-09-26T03:48:10.879Z,10.12
2022-09-26T03:49:10.978Z,10.12
2022-09-26T03:50:10.863Z,10.10
2022-09-26T03:51:10.864Z,10.10
2022-09-26T03:52:10.810Z,10.09
2022-09-26T03:53:10.831Z,10.10
2022-09-26T03:54:10.788Z,10.10
2022-09-26T03:55:10.902Z,10.12
2022-09-26T03:56:10.795Z,10.12
2022-09-26T03:57:10.769Z,10.12
2022-09-26T03:58:10.744Z,10.09
2022-09-26T03:59:10.738Z,10.10
2022-09-26T04:00:10.704Z,10.10
2022-09-26T04:01:10.763Z,10.12
2022-09-26T04:02:10.835Z,10.12
2022-09-26T04:03:10.675Z,10.14
2022-09-26T04:04:10.652Z,10.14
2022-09-26T04:05:10.655Z,10.15
2022-09-26T04:06:10.613Z,10.15
2022-09-26T04:07:10.653Z,10.19
2022-09-26T04:08:10.606Z,10.18
2022-09-26T04:09:15.910Z,10.21
2022-09-26T04:10:11.590Z,10.21
2022-09-26T04:11:10.569Z,10.22
2022-09-26T04:12:11.234Z,10.22
2022-09-26T04:13:10.590Z,10.24
2022-09-26T04:14:10.506Z,10.24
2022-09-26T04:15:10.503Z,10.25
2022-09-26T04:16:10.538Z,10.26
2022-09-26T04:17:10.501Z,10.26
2022-09-26T04:18:10.476Z,10.28
2022-09-26T04:19:10.577Z,10.28
2022-09-26T04:20:10.451Z,10.30
2022-09-26T04:21:10.442Z,10.30
2022-09-26T04:22:10.412Z,10.32
2022-09-26T04:23:10.410Z,10.33
2022-09-26T04:24:10.384Z,10.33
2022-09-26T04:25:10.492Z,10.33
2022-09-26T04:26:10.353Z,10.34
2022-09-26T04:27:11.290Z,10.36
2022-09-26T04:28:10.332Z,10.36
2022-09-26T04:29:10.310Z,10.36
2022-09-26T04:30:10.302Z,10.37
2022-09-26T04:31:10.441Z,10.37
2022-09-26T04:32:10.270Z,10.37
2022-09-26T04:33:10.259Z,10.37
2022-09-26T04:34:10.260Z,10.39
2022-09-26T04:35:10.244Z,10.39
2022-09-26T04:36:10.210Z,10.39
2022-09-26T04:37:10.274Z,10.40
2022-09-26T04:38:10.185Z,10.40
2022-09-26T04:39:11.124Z,10.42
2022-09-26T04:40:10.409Z,10.43
2022-09-26T04:41:10.239Z,10.44
2022-09-26T04:42:10.137Z,10.44
2022-09-26T04:43:10.266Z,10.46
2022-09-26T04:44:10.105Z,10.47
2022-09-26T04:45:10.107Z,10.46
2022-09-26T04:46:10.130Z,10.46
2022-09-26T04:47:10.075Z,10.46
2022-09-26T04:48:10.070Z,10.47
2022-09-26T04:49:10.256Z,10.47
2022-09-26T04:50:10.029Z,10.51
2022-09-26T04:51:10.719Z,10.51
2022-09-26T04:52:09.987Z,10.52
2022-09-26T04:53:10.009Z,10.51
2022-09-26T04:54:09.973Z,10.51
2022-09-26T04:55:10.073Z,10.51
2022-09-26T04:56:09.951Z,10.52
2022-09-26T04:57:09.928Z,10.52
2022-09-26T04:58:09.922Z,10.52
2022-09-26T04:59:10.051Z,10.53
2022-09-26T05:00:09.888Z,10.56
2022-09-26T05:01:10.290Z,10.55
2022-09-26T05:02:09.917Z,10.56
2022-09-26T05:03:09.848Z,10.56
2022-09-26T05:04:10.540Z,10.58
2022-09-26T05:05:09.845Z,10.58
2022-09-26T05:06:09.799Z,10.58
2022-09-26T05:07:09.827Z,10.58
2022-09-26T05:08:09.802Z,10.59
2022-09-26T05:09:09.800Z,10.59
2022-09-26T05:10:10.457Z,10.58
2022-09-26T05:11:09.754Z,10.59
2022-09-26T05:12:09.741Z,10.58
2022-09-26T05:13:09.775Z,10.58
2022-09-26T05:14:09.702Z,10.58
2022-09-26T05:15:09.691Z,10.58
2022-09-26T05:16:09.744Z,10.58
2022-09-26T05:17:09.671Z,10.58
2022-09-26T05:18:09.675Z,10.56
2022-09-26T05:19:09.862Z,10.58
2022-09-26T05:20:09.623Z,10.58
2022-09-26T05:21:09.604Z,10.59
2022-09-26T05:22:12.297Z,10.59
2022-09-26T05:23:09.597Z,10.59
2022-09-26T05:24:09.564Z,10.59
2022-09-26T05:25:09.718Z,10.58
2022-09-26T05:26:09.539Z,10.59
2022-09-26T05:27:09.544Z,10.60
2022-09-26T05:28:09.529Z,10.59
2022-09-26T05:29:09.619Z,10.60
2022-09-26T05:30:09.510Z,10.59
2022-09-26T05:31:09.678Z,10.60
2022-09-26T05:32:09.454Z,10.60
2022-09-26T05:33:09.470Z,10.62
2022-09-26T05:34:09.427Z,10.62
2022-09-26T05:35:09.417Z,10.62
2022-09-26T05:36:09.415Z,10.60
2022-09-26T05:37:09.530Z,10.62
2022-09-26T05:38:09.370Z,10.63
2022-09-26T05:39:09.395Z,10.63
2022-09-26T05:40:09.364Z,10.62
2022-09-26T05:41:09.337Z,10.63
2022-09-26T05:42:09.326Z,10.65
2022-09-26T05:43:09.364Z,10.65
2022-09-26T05:44:09.290Z,10.66
2022-09-26T05:45:09.309Z,10.65
2022-09-26T05:46:09.261Z,10.63
2022-09-26T05:47:09.341Z,10.68
2022-09-26T05:48:09.245Z,10.66
2022-09-26T05:49:09.438Z,10.68
2022-09-26T05:50:09.225Z,10.66
2022-09-26T05:51:09.220Z,10.68
2022-09-26T05:52:09.182Z,10.70
2022-09-26T05:53:09.203Z,10.70
2022-09-26T05:54:09.154Z,10.70
2022-09-26T05:55:09.262Z,10.70
2022-09-26T05:56:09.147Z,10.70
2022-09-26T05:57:10.616Z,10.71
2022-09-26T05:58:12.627Z,10.71
2022-09-26T06:35:54.684Z,11.35
2022-09-26T06:37:15.045Z,11.36
2022-09-26T06:38:02.731Z,11.38
2022-09-26T06:39:26.982Z,11.38
2022-09-26T06:39:54.634Z,11.39
2022-09-26T06:40:51.226Z,11.41
2022-09-26T06:41:50.189Z,11.46
2022-09-26T06:42:50.173Z,11.46
2022-09-26T06:43:50.284Z,11.47
2022-09-26T06:44:50.135Z,11.47
2022-09-26T06:45:50.130Z,11.50
2022-09-26T06:46:50.160Z,11.52
2022-09-26T06:47:50.101Z,11.50
2022-09-26T06:48:50.093Z,11.54
2022-09-26T06:49:50.190Z,11.57
2022-09-26T06:50:50.062Z,11.59
2022-09-26T06:51:50.026Z,11.62
2022-09-26T06:52:50.023Z,11.64
2022-09-26T06:53:50.025Z,11.68
2022-09-26T06:54:49.987Z,11.72
2022-09-26T06:55:50.104Z,11.74
2022-09-26T06:56:49.972Z,11.75
2022-09-26T06:57:50.069Z,11.77
2022-09-26T06:58:49.938Z,11.80
2022-09-26T06:59:49.944Z,11.86
2022-09-26T07:00:49.982Z,11.89
2022-09-26T07:01:49.994Z,11.93
2022-09-26T07:02:49.894Z,11.97
2022-09-26T07:03:49.871Z,12.01
2022-09-26T07:04:49.861Z,12.02
2022-09-26T07:05:49.854Z,12.04
2022-09-26T07:06:49.824Z,12.06
2022-09-26T07:07:49.867Z,12.08
2022-09-26T07:09:01.986Z,12.09
2022-09-26T07:09:50.794Z,12.12
2022-09-26T07:10:49.785Z,12.15
2022-09-26T07:12:14.237Z,12.20
2022-09-26T07:12:50.783Z,12.24
2022-09-26T07:13:49.748Z,12.26
2022-09-26T07:14:53.608Z,12.31
2022-09-26T07:15:49.727Z,12.34
2022-09-26T07:16:49.700Z,12.37
2022-09-26T07:17:49.698Z,12.39
2022-09-26T07:18:49.798Z,12.44
2022-09-26T07:19:49.669Z,12.45
2022-09-26T07:20:53.229Z,12.44
2022-09-26T07:21:50.636Z,12.46
2022-09-26T07:22:49.630Z,12.48
2022-09-26T07:23:49.598Z,12.49
2022-09-26T07:24:49.608Z,12.51
2022-09-26T07:25:49.595Z,12.52
2022-09-26T07:26:49.565Z,12.54
2022-09-26T07:27:49.562Z,12.54
2022-09-26T07:28:54.324Z,12.56
2022-09-26T07:29:50.648Z,12.54
2022-09-26T07:30:49.513Z,12.56
2022-09-26T07:31:49.568Z,12.52
2022-09-26T07:32:49.471Z,12.48
2022-09-26T07:33:49.475Z,12.49
2022-09-26T07:34:49.470Z,12.48
2022-09-26T07:35:49.484Z,12.44
2022-09-26T07:36:49.432Z,12.39
2022-09-26T07:37:49.412Z,12.39
2022-09-26T07:38:49.464Z,12.42
2022-09-26T07:39:53.565Z,12.42
2022-09-26T07:40:50.498Z,12.45
2022-09-26T07:41:49.373Z,12.46
2022-09-26T07:43:09.265Z,12.49
2022-09-26T07:45:20.894Z,12.52
2022-09-26T07:45:50.305Z,12.56
2022-09-26T07:46:49.451Z,12.60
2022-09-26T07:47:49.288Z,12.67
2022-09-26T07:48:49.271Z,12.69
2022-09-26T07:49:49.254Z,12.74
2022-09-26T07:50:49.387Z,12.78
2022-09-26T07:51:49.227Z,12.81
2022-09-26T07:52:49.239Z,12.82
2022-09-26T07:53:49.211Z,12.82
2022-09-26T07:54:49.177Z,12.84
2022-09-26T07:55:49.171Z,12.87
2022-09-26T07:56:49.151Z,12.89
2022-09-26T07:57:49.129Z,12.93
2022-09-26T07:58:49.241Z,12.95
2022-09-26T07:59:49.110Z,12.96
2022-09-26T08:00:49.080Z,12.99
2022-09-26T08:01:49.157Z,12.99
2022-09-26T08:02:49.123Z,12.99
2022-09-26T08:03:49.054Z,12.97
2022-09-26T08:04:49.162Z,12.95
2022-09-26T08:05:49.036Z,12.95
2022-09-26T08:06:49.001Z,12.95
2022-09-26T08:07:49.013Z,12.96
2022-09-26T08:08:48.996Z,12.99
2022-09-26T08:09:48.976Z,13.02
2022-09-26T08:10:49.074Z,13.04
2022-09-26T08:11:48.952Z,13.07
2022-09-26T08:12:48.924Z,13.12
2022-09-26T08:13:48.931Z,13.12
2022-09-26T08:14:48.894Z,13.09
2022-09-26T08:15:48.941Z,13.09
2022-09-26T08:16:49.132Z,13.11
2022-09-26T08:17:48.864Z,13.17
2022-09-26T08:18:48.843Z,13.22
2022-09-26T08:19:48.858Z,13.27
2022-09-26T08:20:48.838Z,13.32
2022-09-26T08:21:48.805Z,13.38
2022-09-26T08:22:48.838Z,13.46
2022-09-26T08:23:48.779Z,13.44
2022-09-26T08:24:48.758Z,13.52
2022-09-26T08:25:48.771Z,13.56
2022-09-26T08:26:48.745Z,13.63
2022-09-26T08:27:48.742Z,13.70
2022-09-26T08:28:48.743Z,13.74
2022-09-26T08:29:48.720Z,13.74
2022-09-26T08:30:48.699Z,13.79
2022-09-26T08:31:48.739Z,13.87
2022-09-26T08:32:48.638Z,13.84
2022-09-26T08:33:48.652Z,13.84
2022-09-26T08:34:48.761Z,13.87
2022-09-26T08:35:48.631Z,13.95
2022-09-26T08:36:48.613Z,13.92
2022-09-26T08:37:48.591Z,13.94
2022-09-26T08:38:48.587Z,13.94
2022-09-26T08:39:48.613Z,13.92
2022-09-26T08:40:48.724Z,13.84
2022-09-26T08:41:48.545Z,13.80
2022-09-26T08:42:48.521Z,13.79
2022-09-26T08:43:48.514Z,13.80
2022-09-26T08:44:48.496Z,13.80
2022-09-26T08:45:48.484Z,13.77
2022-09-26T08:46:48.658Z,13.76
2022-09-26T08:47:48.452Z,13.67
2022-09-26T08:48:48.434Z,13.65
2022-09-26T08:49:48.449Z,13.61
2022-09-26T08:50:48.421Z,13.61
2022-09-26T08:51:48.395Z,13.61
2022-09-26T08:52:48.415Z,13.59
2022-09-26T08:53:48.391Z,13.59
2022-09-26T08:54:48.353Z,13.61
2022-09-26T08:55:48.360Z,13.65
2022-09-26T08:56:48.343Z,13.70
2022-09-26T08:57:48.323Z,13.76
2022-09-26T08:58:48.429Z,13.80
2022-09-26T08:59:48.297Z,13.84
2022-09-26T09:00:48.277Z,13.88
2022-09-26T09:01:48.420Z,13.91
2022-09-26T09:02:49.107Z,13.91
2022-09-26T09:03:48.242Z,13.95
2022-09-26T09:04:53.644Z,13.99
2022-09-26T09:05:49.216Z,14.02
2022-09-26T09:06:48.200Z,14.04
2022-09-26T09:07:48.237Z,14.04
2022-09-26T09:08:48.184Z,14.04
2022-09-26T09:09:48.169Z,14.02
2022-09-26T09:10:48.297Z,13.99
2022-09-26T09:11:51.077Z,13.95
2022-09-26T09:12:48.110Z,13.94
2022-09-26T09:13:48.116Z,13.89
2022-09-26T09:15:02.393Z,13.84
2022-09-26T09:15:49.250Z,13.88
2022-09-26T09:16:48.076Z,13.92
2022-09-26T09:17:48.063Z,13.94
2022-09-26T09:18:48.047Z,13.95
2022-09-26T09:19:48.035Z,13.91
2022-09-26T09:20:48.090Z,13.87
2022-09-26T09:21:48.041Z,13.77
2022-09-26T09:22:47.992Z,13.79
2022-09-26T09:23:47.968Z,13.74
2022-09-26T09:24:47.954Z,13.74
2022-09-26T09:25:48.031Z,13.74
2022-09-26T09:27:52.767Z,13.73
2022-09-26T09:28:47.912Z,13.77
2022-09-26T09:29:49.637Z,13.80
2022-09-26T09:30:47.902Z,13.89
2022-09-26T09:31:47.949Z,13.94
2022-09-26T09:32:47.849Z,13.98
2022-09-26T09:33:47.872Z,14.01
2022-09-26T09:34:51.559Z,14.06
2022-09-26T09:35:48.830Z,14.13
2022-09-26T09:36:47.813Z,14.19
2022-09-26T09:37:47.787Z,14.24
2022-09-26T09:38:47.771Z,14.31
2022-09-26T09:39:47.904Z,14.29
2022-09-26T09:40:47.786Z,14.20
2022-09-26T09:41:47.722Z,14.13
2022-09-26T09:42:47.892Z,14.06
2022-09-26T09:43:47.693Z,13.99
2022-09-26T09:44:47.714Z,13.94
2022-09-26T09:45:47.825Z,13.83
2022-09-26T09:46:47.682Z,13.83
2022-09-26T09:47:47.667Z,13.81
2022-09-26T09:48:47.645Z,13.77
2022-09-26T09:49:47.613Z,13.80
2022-09-26T09:50:47.621Z,13.76
2022-09-26T09:51:47.617Z,13.74
2022-09-26T09:52:47.581Z,13.67
2022-09-26T09:53:47.568Z,13.62
2022-09-26T09:54:47.568Z,13.58
2022-09-26T09:55:47.533Z,13.56
2022-09-26T09:56:47.527Z,13.56
2022-09-26T09:57:47.631Z,13.55
2022-09-26T09:58:47.496Z,13.54
2022-09-26T09:59:47.501Z,13.51
2022-09-26T10:00:51.018Z,13.46
2022-09-26T10:01:47.447Z,13.43
2022-09-26T10:02:47.479Z,13.40
2022-09-26T10:03:47.457Z,13.36
2022-09-26T10:04:47.426Z,13.27
2022-09-26T10:05:47.411Z,13.17
2022-09-26T10:06:47.554Z,13.12
2022-09-26T10:07:47.383Z,13.07
2022-09-26T10:08:47.373Z,12.99
2022-09-26T10:09:47.379Z,12.95
2022-09-26T10:10:47.340Z,12.89
2022-09-26T10:11:52.344Z,12.87
2022-09-26T10:12:48.324Z,12.85
2022-09-26T10:13:47.291Z,12.84
2022-09-26T10:14:47.299Z,12.82
2022-09-26T10:15:47.405Z,12.84
2022-09-26T10:16:47.252Z,12.87
2022-09-26T10:18:06.592Z,12.89
2022-09-26T10:18:48.278Z,12.96
2022-09-26T10:19:47.218Z,13.00
2022-09-26T10:20:47.218Z,13.02
2022-09-26T10:21:47.371Z,13.02
2022-09-26T10:22:47.205Z,13.03
2022-09-26T10:23:47.145Z,13.06
2022-09-26T10:24:47.164Z,13.07
2022-09-26T10:25:47.149Z,13.06
2022-09-26T10:26:47.140Z,13.07
2022-09-26T10:27:47.217Z,13.04
2022-09-26T10:28:47.097Z,13.11
2022-09-26T10:29:47.083Z,13.17
2022-09-26T10:30:47.123Z,13.22
2022-09-26T10:31:47.197Z,13.27
2022-09-26T10:32:47.050Z,13.33
2022-09-26T10:33:47.127Z,13.40
2022-09-26T10:34:47.021Z,13.52
2022-09-26T10:35:46.990Z,13.63
2022-09-26T10:36:46.978Z,13.71
2022-09-26T10:37:46.981Z,13.87
2022-09-26T10:38:46.960Z,13.92
2022-09-26T10:39:47.072Z,13.96
2022-09-26T10:40:47.025Z,13.96
2022-09-26T10:41:46.911Z,13.94
2022-09-26T10:42:46.932Z,13.89
2022-09-26T10:43:46.881Z,13.83
2022-09-26T10:44:46.871Z,13.74
2022-09-26T10:45:46.986Z,13.69
2022-09-26T10:46:47.026Z,13.69
2022-09-26T10:47:46.856Z,13.65
2022-09-26T10:48:46.839Z,13.61
2022-09-26T10:49:46.804Z,13.63
2022-09-26T10:50:46.810Z,13.62
2022-09-26T10:51:46.893Z,13.56
2022-09-26T10:52:46.772Z,13.46
2022-09-26T10:53:46.757Z,13.25
2022-09-26T10:54:46.743Z,13.14
2022-09-26T10:55:46.739Z,13.09
2022-09-26T10:56:46.730Z,13.04
2022-09-26T10:57:46.818Z,12.97
2022-09-26T10:58:46.696Z,12.99
2022-09-26T10:59:46.684Z,13.02
2022-09-26T11:00:46.681Z,13.07
2022-09-26T11:01:46.721Z,13.14
2022-09-26T11:02:46.651Z,13.22
2022-09-26T11:03:46.697Z,13.27
2022-09-26T11:04:46.607Z,13.41
2022-09-26T11:05:46.610Z,13.47
2022-09-26T11:06:46.587Z,13.46
2022-09-26T11:07:46.581Z,13.54
2022-09-26T11:08:46.572Z,13.55
2022-09-26T11:09:46.656Z,13.62
2022-09-26T11:10:46.552Z,13.67
2022-09-26T11:11:46.509Z,13.71
2022-09-26T11:12:46.508Z,13.83
2022-09-26T11:13:46.494Z,13.87
2022-09-26T11:14:46.486Z,13.88
2022-09-26T11:15:46.598Z,13.87
2022-09-26T11:16:46.457Z,13.87
2022-09-26T11:17:46.445Z,13.87
2022-09-26T11:18:46.423Z,13.79
2022-09-26T11:19:51.060Z,13.69
2022-09-26T11:20:49.701Z,13.69
2022-09-26T11:22:12.376Z,13.70
2022-09-26T11:22:47.827Z,13.70
2022-09-26T11:24:56.513Z,13.69
2022-09-26T11:25:58.172Z,13.63
2022-09-26T11:26:56.498Z,13.61
2022-09-26T11:27:56.461Z,13.61
2022-09-26T11:28:56.466Z,13.58
2022-09-26T11:29:56.434Z,13.56
2022-09-26T11:30:56.458Z,13.58
2022-09-26T11:32:00.142Z,13.55
2022-09-26T11:32:56.404Z,13.56
2022-09-26T11:33:56.398Z,13.56
2022-09-26T11:34:56.388Z,13.47
2022-09-26T11:35:56.367Z,13.43
2022-09-26T11:36:56.359Z,13.41
2022-09-26T11:37:56.355Z,13.41
2022-09-26T11:45:38.613Z,12.97
2022-09-26T11:54:18.966Z,12.64
2022-09-26T12:06:45.611Z,12.39
2022-09-26T12:14:01.770Z,12.24
2022-09-26T12:17:31.157Z,12.20
2022-09-26T12:18:21.361Z,12.16
2022-09-26T12:21:45.639Z,12.24
2022-09-26T12:26:50.290Z,12.39
2022-09-26T12:28:37.001Z,12.42
